createdAt,value
2022-12-19T00:01:37.499Z,13.38
2022-12-19T00:04:08.196Z,14.00
2022-12-19T00:06:36.562Z,13.27
2022-12-19T00:09:04.559Z,16.08
2022-12-19T00:11:32.161Z,12.40
2022-12-19T00:13:59.528Z,15.13
2022-12-19T00:16:28.974Z,15.82
2022-12-19T00:18:58.340Z,14.82
2022-12-19T00:21:27.719Z,12.40
2022-12-19T00:23:54.626Z,16.45
2022-12-19T00:26:24.178Z,14.20
2022-12-19T00:28:53.629Z,14.43
2022-12-19T00:31:21.960Z,14.60
2022-12-19T00:33:49.444Z,16.45
2022-12-19T00:36:22.918Z,13.45
2022-12-19T00:38:51.720Z,16.30
2022-12-19T00:41:19.855Z,15.23
2022-12-19T00:43:54.031Z,17.80
2022-12-19T00:46:20.928Z,17.13
2022-12-19T00:48:47.627Z,17.30
2022-12-19T00:51:17.092Z,17.10
2022-12-19T00:53:45.340Z,18.40
2022-12-19T00:56:14.904Z,16.58
2022-12-19T00:58:46.638Z,15.35
2022-12-19T01:01:17.188Z,16.75
2022-12-19T01:04:04.324Z,20.60
2022-12-19T01:06:30.611Z,17.15
2022-12-19T01:08:58.370Z,14.93
2022-12-19T01:11:43.748Z,18.67
2022-12-19T01:14:17.425Z,15.27
2022-12-19T01:16:47.874Z,15.63
2022-12-19T01:19:14.633Z,16.85
2022-12-19T01:21:41.272Z,16.50
2022-12-19T01:24:08.042Z,15.60
2022-12-19T01:26:34.590Z,18.20
2022-12-19T01:29:01.156Z,18.30
2022-12-19T01:31:27.786Z,14.57
2022-12-19T01:33:54.619Z,20.08
2022-12-19T01:36:21.335Z,18.02
2022-12-19T01:38:47.889Z,17.00
2022-12-19T01:41:14.525Z,15.52
2022-12-19T01:44:05.560Z,15.98
2022-12-19T01:46:37.314Z,16.45
2022-12-19T01:49:06.217Z,16.20
2022-12-19T01:51:40.870Z,18.33
2022-12-19T01:54:11.192Z,16.88
2022-12-19T01:56:45.483Z,18.98
2022-12-19T01:59:17.555Z,15.90
2022-12-19T02:01:51.026Z,15.73
2022-12-19T02:04:20.177Z,16.83
2022-12-19T02:06:47.330Z,16.83
2022-12-19T02:09:14.617Z,15.60
2022-12-19T02:11:41.271Z,16.08
2022-12-19T02:14:07.883Z,19.25
2022-12-19T02:16:42.163Z,16.20
2022-12-19T02:19:30.305Z,17.90
2022-12-19T02:22:47.302Z,16.42
2022-12-19T02:25:14.033Z,20.08
2022-12-19T02:27:58.994Z,16.25
2022-12-19T02:30:56.586Z,16.75
2022-12-19T02:33:32.759Z,17.35
2022-12-19T02:36:15.161Z,15.90
2022-12-19T02:41:24.456Z,11.55
2022-12-19T02:43:58.733Z,16.05
2022-12-19T02:46:26.799Z,16.80
2022-12-19T02:48:54.190Z,18.52
2022-12-19T02:51:20.783Z,18.70
2022-12-19T02:53:47.672Z,17.60
2022-12-19T02:56:29.681Z,14.95
2022-12-19T02:59:24.271Z,16.70
2022-12-19T03:02:04.079Z,18.42
2022-12-19T03:04:59.428Z,17.48
2022-12-19T03:08:07.085Z,16.50
2022-12-19T03:10:37.948Z,17.92
2022-12-19T03:13:12.748Z,19.05
2022-12-19T03:15:41.551Z,16.17
2022-12-19T03:18:09.153Z,19.52
2022-12-19T03:20:45.038Z,16.55
2022-12-19T03:23:13.082Z,18.30
2022-12-19T03:25:42.975Z,17.45
2022-12-19T03:28:13.569Z,17.52
2022-12-19T03:30:43.048Z,17.83
2022-12-19T03:33:11.613Z,16.95
2022-12-19T03:35:40.258Z,17.30
2022-12-19T03:38:08.730Z,19.75
2022-12-19T03:40:37.231Z,18.38
2022-12-19T03:43:09.674Z,18.05
2022-12-19T03:45:52.416Z,15.75
2022-12-19T03:48:42.390Z,18.25
2022-12-19T03:51:14.899Z,19.00
2022-12-19T03:54:02.085Z,19.23
2022-12-19T03:56:50.500Z,18.73
2022-12-19T03:59:31.429Z,18.05
2022-12-19T04:01:58.958Z,16.17
2022-12-19T04:04:27.105Z,16.33
2022-12-19T04:06:55.119Z,18.70
2022-12-19T04:09:24.021Z,18.40
2022-12-19T04:11:57.161Z,20.17
2022-12-19T04:14:35.993Z,18.40
2022-12-19T04:17:27.074Z,18.38
2022-12-19T04:19:59.401Z,20.70
2022-12-19T04:22:38.938Z,17.65
2022-12-19T04:25:08.760Z,19.58
2022-12-19T04:27:38.484Z,16.98
2022-12-19T04:30:06.513Z,17.45
2022-12-19T04:32:35.403Z,18.27
2022-12-19T04:35:02.828Z,16.67
2022-12-19T04:37:30.839Z,17.38
2022-12-19T04:39:58.003Z,18.33
2022-12-19T04:42:24.605Z,19.02
2022-12-19T04:44:51.256Z,19.40
2022-12-19T04:47:17.949Z,19.42
2022-12-19T04:49:44.737Z,22.15
2022-12-19T04:52:11.304Z,18.77
2022-12-19T04:54:38.145Z,21.10
2022-12-19T04:57:04.954Z,17.42
2022-12-19T04:59:31.595Z,18.60
2022-12-19T05:01:58.489Z,17.70
2022-12-19T05:04:26.400Z,17.35
2022-12-19T05:06:53.313Z,17.25
2022-12-19T05:09:19.979Z,20.02
2022-12-19T05:11:46.551Z,18.45
2022-12-19T05:14:13.185Z,19.27
2022-12-19T05:16:39.751Z,18.08
2022-12-19T05:19:06.330Z,21.58
2022-12-19T05:21:32.964Z,16.42
2022-12-19T05:23:59.792Z,19.55
2022-12-19T05:26:26.379Z,17.85
2022-12-19T05:28:53.150Z,17.55
2022-12-19T05:31:20.762Z,17.00
2022-12-19T05:33:48.287Z,17.45
2022-12-19T05:36:16.054Z,16.45
2022-12-19T05:38:42.738Z,15.13
2022-12-19T05:41:15.476Z,17.08
2022-12-19T05:43:42.809Z,18.08
2022-12-19T05:46:09.679Z,16.33
2022-12-19T05:48:37.266Z,20.88
2022-12-19T05:51:04.273Z,18.70
2022-12-19T05:53:31.090Z,21.25
2022-12-19T05:56:08.978Z,20.67
2022-12-19T05:58:35.914Z,18.48
2022-12-19T06:01:26.446Z,19.77
2022-12-19T06:03:54.118Z,17.00
2022-12-19T06:06:23.620Z,19.40
2022-12-19T06:08:58.597Z,20.05
2022-12-19T06:11:26.171Z,21.45
2022-12-19T06:13:53.147Z,22.52
2022-12-19T06:16:21.549Z,18.67
2022-12-19T06:18:48.839Z,19.45
2022-12-19T06:21:21.571Z,21.58
2022-12-19T06:23:48.889Z,19.02
2022-12-19T06:26:20.000Z,19.23
2022-12-19T06:28:51.661Z,21.05
2022-12-19T06:31:20.198Z,21.20
2022-12-19T06:33:46.858Z,22.55
2022-12-19T06:36:21.246Z,20.40
2022-12-19T06:38:48.610Z,19.25
2022-12-19T06:41:34.617Z,20.42
2022-12-19T06:44:03.201Z,24.20
2022-12-19T06:46:30.474Z,22.02
2022-12-19T06:48:57.361Z,19.90
2022-12-19T06:51:24.001Z,19.90
2022-12-19T06:53:51.069Z,20.42
2022-12-19T06:56:18.384Z,24.30
2022-12-19T06:58:45.210Z,19.60
2022-12-19T07:01:18.175Z,22.15
2022-12-19T07:03:46.201Z,20.42
2022-12-19T07:06:12.804Z,18.27
2022-12-19T07:08:39.370Z,22.00
2022-12-19T07:11:06.300Z,21.38
2022-12-19T07:13:32.938Z,23.15
2022-12-19T07:16:03.241Z,20.52
2022-12-19T07:18:34.462Z,22.98
2022-12-19T07:21:01.969Z,24.38
2022-12-19T07:23:29.121Z,24.48
2022-12-19T07:25:55.809Z,22.20
2022-12-19T07:28:22.399Z,25.02
2022-12-19T07:30:49.085Z,19.55
2022-12-19T07:33:21.065Z,21.73
2022-12-19T07:35:48.197Z,25.73
2022-12-19T07:38:14.912Z,24.75
2022-12-19T07:40:41.523Z,23.17
2022-12-19T07:43:08.181Z,22.27
2022-12-19T07:45:37.667Z,24.45
2022-12-19T07:48:05.964Z,21.38
2022-12-19T07:50:33.106Z,23.23
2022-12-19T07:52:59.835Z,20.85
2022-12-19T07:55:26.933Z,21.70
2022-12-19T07:57:53.836Z,23.05
2022-12-19T08:00:21.399Z,23.58
2022-12-19T08:02:48.204Z,20.50
2022-12-19T08:05:15.136Z,21.70
2022-12-19T08:07:41.762Z,22.25
2022-12-19T08:10:09.135Z,20.38
2022-12-19T08:12:35.829Z,20.40
2022-12-19T08:15:02.477Z,18.35
2022-12-19T08:17:29.086Z,22.48
2022-12-19T08:19:55.738Z,24.02
2022-12-19T08:22:22.896Z,19.10
2022-12-19T08:24:51.212Z,19.85
2022-12-19T08:27:17.859Z,21.52
2022-12-19T08:29:44.543Z,23.08
2022-12-19T08:32:15.632Z,20.33
2022-12-19T08:34:45.588Z,21.15
2022-12-19T08:37:15.024Z,21.23
2022-12-19T08:39:41.758Z,21.23
2022-12-19T08:42:08.718Z,16.98
2022-12-19T08:44:35.462Z,19.33
2022-12-19T08:47:02.618Z,21.80
2022-12-19T08:49:29.306Z,20.00
2022-12-19T08:51:56.242Z,19.45
2022-12-19T08:54:23.067Z,21.88
2022-12-19T08:56:49.895Z,22.20
2022-12-19T08:59:25.617Z,19.02
2022-12-19T09:01:59.418Z,17.57
2022-12-19T09:05:59.489Z,20.17
2022-12-19T09:07:15.620Z,17.48
2022-12-19T09:09:42.950Z,19.08
2022-12-19T09:12:09.580Z,16.45
2022-12-19T09:14:36.429Z,16.92
2022-12-19T09:17:03.816Z,19.15
2022-12-19T09:19:31.947Z,14.05
2022-12-19T09:21:58.841Z,13.73
2022-12-19T09:24:25.522Z,15.20
2022-12-19T09:26:52.431Z,13.05
2022-12-19T09:29:20.302Z,16.38
2022-12-19T09:31:55.693Z,13.90
2022-12-19T09:34:33.506Z,14.73
2022-12-19T09:37:16.800Z,13.00
2022-12-19T09:39:46.113Z,12.65
2022-12-19T09:42:42.081Z,12.90
2022-12-19T09:45:47.635Z,13.80
2022-12-19T09:48:24.198Z,11.40
2022-12-19T09:51:09.345Z,13.00
2022-12-19T09:54:06.715Z,12.68
2022-12-19T09:56:45.380Z,12.27
2022-12-19T09:59:41.220Z,13.32
2022-12-19T10:02:24.201Z,14.60
2022-12-19T10:05:04.145Z,13.13
2022-12-19T10:08:07.268Z,11.35
2022-12-19T10:12:39.851Z,14.57
2022-12-19T10:14:04.592Z,11.10
2022-12-19T10:20:09.646Z,10.73
2022-12-19T10:22:42.387Z,11.60
2022-12-19T10:25:20.306Z,12.40
2022-12-19T10:28:11.958Z,11.25
2022-12-19T10:31:15.503Z,10.20
2022-12-19T10:34:12.438Z,11.23
2022-12-19T10:37:23.288Z,10.13
2022-12-19T10:39:55.071Z,11.95
2022-12-19T10:42:44.285Z,11.05
2022-12-19T10:45:19.285Z,11.73
2022-12-19T10:47:54.728Z,13.73
2022-12-19T10:50:26.728Z,15.75
2022-12-19T10:53:10.236Z,12.38
2022-12-19T10:55:48.506Z,14.30
2022-12-19T10:58:24.382Z,12.65
2022-12-19T11:01:03.096Z,14.68
2022-12-19T11:03:29.981Z,15.63
2022-12-19T11:05:58.862Z,12.80
2022-12-19T11:08:27.000Z,15.00
2022-12-19T11:12:06.553Z,15.85
2022-12-19T11:19:17.673Z,14.52
2022-12-19T11:23:45.696Z,11.18
2022-12-19T11:29:45.132Z,15.18
2022-12-19T11:30:05.032Z,14.40
2022-12-19T11:30:38.985Z,15.55
2022-12-19T11:30:46.255Z,14.82
2022-12-19T11:34:13.394Z,13.32
2022-12-19T11:37:00.751Z,13.57
2022-12-19T11:39:40.402Z,15.52
2022-12-19T11:42:33.366Z,13.70
2022-12-19T11:45:34.960Z,15.50
2022-12-19T11:48:21.660Z,12.77
2022-12-19T11:51:23.999Z,15.48
2022-12-19T11:54:14.604Z,20.23
2022-12-19T11:56:41.955Z,17.85
2022-12-19T11:59:34.496Z,14.80
2022-12-19T12:02:27.535Z,14.18
2022-12-19T12:05:20.500Z,16.10
2022-12-19T12:09:21.290Z,16.95
2022-12-19T12:16:06.740Z,12.55
2022-12-19T12:21:37.638Z,15.75
2022-12-19T12:31:00.548Z,16.67
2022-12-19T12:31:06.393Z,16.38
2022-12-19T12:31:43.412Z,17.27
2022-12-19T12:31:46.814Z,18.25
2022-12-19T12:32:05.062Z,15.35
2022-12-19T12:35:28.681Z,18.42
2022-12-19T12:39:12.999Z,19.48
2022-12-19T12:42:05.419Z,18.33
2022-12-19T12:44:45.563Z,16.80
2022-12-19T12:47:19.009Z,16.60
2022-12-19T12:50:08.311Z,20.83
2022-12-19T12:52:38.977Z,16.08
2022-12-19T12:55:26.375Z,19.35
2022-12-19T12:57:53.009Z,18.20
2022-12-19T13:00:36.397Z,21.23
2022-12-19T13:03:13.687Z,18.70
2022-12-19T13:05:46.428Z,16.23
2022-12-19T13:08:25.844Z,18.77
2022-12-19T13:10:58.935Z,19.27
2022-12-19T13:13:50.101Z,17.05
2022-12-19T13:16:44.621Z,18.17
2022-12-19T13:19:19.717Z,15.68
2022-12-19T13:22:09.587Z,18.45
2022-12-19T13:24:52.589Z,19.10
2022-12-19T13:27:19.133Z,17.00
2022-12-19T13:30:01.128Z,18.55
2022-12-19T13:32:38.915Z,16.73
2022-12-19T13:36:25.238Z,16.45
2022-12-19T13:39:56.269Z,15.07
2022-12-19T13:41:45.167Z,16.90
2022-12-19T13:44:12.070Z,18.00
2022-12-19T13:46:43.582Z,19.48
2022-12-19T13:49:10.188Z,16.70
2022-12-19T13:51:47.659Z,20.90
2022-12-19T13:54:34.562Z,20.42
2022-12-19T13:57:06.579Z,18.17
2022-12-19T13:59:38.855Z,19.15
2022-12-19T14:02:27.183Z,17.95
2022-12-19T14:04:53.990Z,14.65
2022-12-19T14:07:46.823Z,19.10
2022-12-19T14:11:36.979Z,13.95
2022-12-19T14:14:01.155Z,17.20
2022-12-19T14:16:44.071Z,16.50
2022-12-19T14:19:20.209Z,20.23
2022-12-19T14:22:10.608Z,17.20
2022-12-19T14:24:33.475Z,17.98
2022-12-19T14:28:21.950Z,16.42
2022-12-19T14:30:27.605Z,18.77
2022-12-19T14:33:45.854Z,17.33
2022-12-19T14:36:11.168Z,18.05
2022-12-19T14:39:22.762Z,18.15
2022-12-19T14:52:07.979Z,14.50
2022-12-19T14:54:03.496Z,15.48
2022-12-19T14:54:23.412Z,17.00
2022-12-19T14:54:37.230Z,20.33
2022-12-19T14:56:53.656Z,17.08
2022-12-19T14:59:00.348Z,19.30
2022-12-19T15:01:33.162Z,18.73
2022-12-19T15:04:50.654Z,17.55
2022-12-19T15:07:06.674Z,19.23
2022-12-19T15:11:02.449Z,18.33
2022-12-19T15:14:49.679Z,17.60
2022-12-19T15:16:05.503Z,16.48
2022-12-19T15:18:32.156Z,21.27
2022-12-19T15:21:04.253Z,18.35
2022-12-19T15:23:31.277Z,20.02
2022-12-19T15:26:03.983Z,20.88
2022-12-19T15:28:42.318Z,18.60
2022-12-19T15:31:35.046Z,16.38
2022-12-19T15:34:39.231Z,18.05
2022-12-19T15:37:06.298Z,19.95
2022-12-19T15:39:32.851Z,19.35
2022-12-19T15:42:00.525Z,17.90
2022-12-19T15:44:39.412Z,15.88
2022-12-19T15:47:12.481Z,17.65
2022-12-19T15:49:39.291Z,17.58
2022-12-19T15:52:16.279Z,17.13
2022-12-19T15:54:51.279Z,17.30
2022-12-19T15:57:35.033Z,18.73
2022-12-19T16:00:08.206Z,16.90
2022-12-19T16:03:13.215Z,17.50
2022-12-19T16:05:24.083Z,17.80
2022-12-19T16:07:50.887Z,17.30
2022-12-19T16:10:17.987Z,15.73
2022-12-19T16:12:51.046Z,14.45
2022-12-19T16:15:29.359Z,15.73
2022-12-19T16:17:57.381Z,16.33
2022-12-19T16:20:26.955Z,16.92
2022-12-19T16:22:54.860Z,17.15
2022-12-19T16:25:22.878Z,15.85
2022-12-19T16:27:55.835Z,15.35
2022-12-19T16:30:29.625Z,19.80
2022-12-19T16:32:56.497Z,15.43
2022-12-19T16:35:55.071Z,15.98
2022-12-19T16:38:12.054Z,14.70
2022-12-19T16:40:39.511Z,13.52
2022-12-19T16:43:15.775Z,15.18
2022-12-19T16:45:43.537Z,15.93
2022-12-19T16:48:27.383Z,12.48
2022-12-19T16:50:54.185Z,14.55
2022-12-19T16:53:20.795Z,14.82
2022-12-19T16:55:49.019Z,15.75
2022-12-19T16:58:22.248Z,17.40
2022-12-19T17:00:51.137Z,17.35
2022-12-19T17:03:31.903Z,14.63
2022-12-19T17:05:58.834Z,18.20
2022-12-19T17:08:25.652Z,17.08
2022-12-19T17:10:53.342Z,18.75
2022-12-19T17:13:21.853Z,17.38
2022-12-19T17:15:56.109Z,17.98
2022-12-19T17:18:33.013Z,20.42
2022-12-19T17:20:59.952Z,18.58
2022-12-19T17:23:29.335Z,19.90
2022-12-19T17:25:56.382Z,18.15
2022-12-19T17:28:23.035Z,17.23
2022-12-19T17:30:52.708Z,32.85
2022-12-19T17:33:20.365Z,24.95
2022-12-19T17:35:48.033Z,34.60
2022-12-19T17:38:17.552Z,26.48
2022-12-19T17:40:45.024Z,18.80
2022-12-19T17:43:12.427Z,18.67
2022-12-19T17:45:39.828Z,17.05
2022-12-19T17:48:15.539Z,19.60
2022-12-19T17:50:42.424Z,19.58
2022-12-19T17:53:14.313Z,21.58
2022-12-19T17:55:41.387Z,18.90
2022-12-19T17:58:10.163Z,17.67
2022-12-19T18:00:37.996Z,16.90
2022-12-19T18:03:30.489Z,19.60
2022-12-19T18:05:58.139Z,16.63
2022-12-19T18:08:30.303Z,20.60
2022-12-19T18:10:59.953Z,14.90
2022-12-19T18:13:28.201Z,19.42
2022-12-19T18:16:00.473Z,19.17
2022-12-19T18:20:56.854Z,16.65
2022-12-19T18:23:23.739Z,19.73
2022-12-19T18:25:54.746Z,16.10
2022-12-19T18:28:24.503Z,19.50
2022-12-19T18:30:52.422Z,16.52
2022-12-19T18:33:23.503Z,19.35
2022-12-19T18:35:50.833Z,15.65
2022-12-19T18:38:22.580Z,14.13
2022-12-19T18:40:51.902Z,19.52
2022-12-19T18:43:19.255Z,16.77
2022-12-19T18:45:48.666Z,21.08
2022-12-19T18:48:26.008Z,18.75
2022-12-19T18:50:53.815Z,17.40
2022-12-19T18:53:23.071Z,16.00
2022-12-19T18:55:51.588Z,16.80
2022-12-19T18:58:18.946Z,16.60
2022-12-19T19:00:46.801Z,16.60
2022-12-19T19:03:16.508Z,15.90
2022-12-19T19:05:43.687Z,16.35
2022-12-19T19:08:26.583Z,16.45
2022-12-19T19:10:55.148Z,15.88
2022-12-19T19:13:23.667Z,13.55
2022-12-19T19:15:56.679Z,15.98
2022-12-19T19:18:36.195Z,14.63
2022-12-19T19:21:03.823Z,13.45
2022-12-19T19:23:36.094Z,16.80
2022-12-19T19:28:29.524Z,16.23
2022-12-19T19:30:57.349Z,14.98
2022-12-19T19:33:30.020Z,16.55
2022-12-19T19:36:04.759Z,15.18
2022-12-19T19:38:37.794Z,16.83
2022-12-19T19:41:04.695Z,14.90
2022-12-19T19:43:35.510Z,18.08
2022-12-19T19:46:02.811Z,17.23
2022-12-19T19:48:29.792Z,17.60
2022-12-19T19:50:56.729Z,17.25
2022-12-19T19:53:23.396Z,19.25
2022-12-19T19:56:00.671Z,17.75
2022-12-19T19:58:29.071Z,17.40
2022-12-19T20:00:56.537Z,17.90
2022-12-19T20:03:24.554Z,18.00
2022-12-19T20:06:01.140Z,19.33
2022-12-19T20:08:32.240Z,19.75
2022-12-19T20:11:03.721Z,17.05
2022-12-19T20:13:30.796Z,17.83
2022-12-19T20:16:12.520Z,16.40
2022-12-19T20:18:40.234Z,19.80
2022-12-19T20:21:13.661Z,15.32
2022-12-19T20:23:42.467Z,17.27
2022-12-19T20:26:09.809Z,17.83
2022-12-19T20:28:41.021Z,15.77
2022-12-19T20:31:12.549Z,13.82
2022-12-19T20:33:39.269Z,15.50
2022-12-19T20:36:08.299Z,17.15
2022-12-19T20:38:35.712Z,14.73
2022-12-19T20:41:02.905Z,16.42
2022-12-19T20:43:29.706Z,17.15
2022-12-19T20:46:08.052Z,14.27
2022-12-19T20:48:34.721Z,15.20
2022-12-19T20:51:02.303Z,13.98
2022-12-19T20:53:29.114Z,13.90
2022-12-19T20:55:58.789Z,15.32
2022-12-19T20:58:30.030Z,13.02
2022-12-19T21:01:11.935Z,14.70
2022-12-19T21:03:39.547Z,14.38
2022-12-19T21:06:07.967Z,13.80
2022-12-19T21:08:35.231Z,16.23
2022-12-19T21:11:03.076Z,15.98
2022-12-19T21:13:29.767Z,15.38
2022-12-19T21:15:59.002Z,13.55
2022-12-19T21:18:28.533Z,16.67
2022-12-19T21:20:56.160Z,15.02
2022-12-19T21:23:25.195Z,14.90
2022-12-19T21:25:52.744Z,17.13
2022-12-19T21:28:19.599Z,16.17
2022-12-19T21:30:46.291Z,15.80
2022-12-19T21:33:12.887Z,15.30
2022-12-19T21:35:39.495Z,15.13
2022-12-19T21:38:06.267Z,15.77
2022-12-19T21:40:35.372Z,15.00
2022-12-19T21:43:06.573Z,12.80
2022-12-19T21:45:38.200Z,15.70
2022-12-19T21:48:05.132Z,16.30
2022-12-19T21:50:33.335Z,14.05
2022-12-19T21:53:00.285Z,13.10
2022-12-19T21:55:26.848Z,14.30
2022-12-19T21:57:53.490Z,15.80
2022-12-19T22:00:20.323Z,15.20
2022-12-19T22:03:12.018Z,11.65
2022-12-19T22:05:35.039Z,13.20
2022-12-19T22:08:01.673Z,15.30
2022-12-19T22:10:28.252Z,15.70
2022-12-19T22:12:54.820Z,14.80
2022-12-19T22:15:21.394Z,16.27
2022-12-19T22:17:47.952Z,15.93
2022-12-19T22:20:15.347Z,16.15
2022-12-19T22:22:41.922Z,11.68
2022-12-19T22:25:09.003Z,15.93
2022-12-19T22:27:35.638Z,13.70
2022-12-19T22:30:06.702Z,14.90
2022-12-19T22:32:37.341Z,13.60
2022-12-19T22:35:04.206Z,12.80
2022-12-19T22:37:30.847Z,17.17
2022-12-19T22:39:59.971Z,15.80
2022-12-19T22:42:27.688Z,13.73
2022-12-19T22:44:54.225Z,14.38
2022-12-19T22:47:20.828Z,11.90
2022-12-19T22:49:50.916Z,12.73
2022-12-19T22:52:17.653Z,12.82
2022-12-19T22:54:44.255Z,14.25
2022-12-19T22:57:10.851Z,13.32
2022-12-19T22:59:37.467Z,14.63
2022-12-19T23:02:04.263Z,12.70
2022-12-19T23:04:30.919Z,12.65
2022-12-19T23:06:57.505Z,12.10
2022-12-19T23:09:24.172Z,14.35
2022-12-19T23:11:50.970Z,14.63
2022-12-19T23:14:19.208Z,13.85
2022-12-19T23:16:46.308Z,12.07
2022-12-19T23:19:15.413Z,12.48
2022-12-19T23:21:42.124Z,13.23
2022-12-19T23:24:08.957Z,14.40
2022-12-19T23:26:37.352Z,12.43
2022-12-19T23:29:07.024Z,11.65
2022-12-19T23:31:34.210Z,13.23
2022-12-19T23:34:01.651Z,14.48
2022-12-19T23:39:15.772Z,12.60
2022-12-19T23:41:42.343Z,11.27
2022-12-19T23:44:09.697Z,14.88
2022-12-19T23:46:36.951Z,14.27
2022-12-19T23:49:04.084Z,13.32
2022-12-19T23:51:30.663Z,12.55
2022-12-19T23:53:57.450Z,10.57
2022-12-19T23:56:26.650Z,12.80
2022-12-19T23:58:53.661Z,12.45
